Time;durP1;ratioP1;P1;durP2;ratioP2;P2;SDS_P1;SDS_P2;PMS_P1;PMS_P2;Temp;Humidity;BMP_temperature;BMP_pressure;BME280_temperature;BME280_humidity;BME280_pressure;Samples;Min_cycle;Max_cycle;Signal;HPM_P1;HPM_P2
2022/09/22 00:01:05;;;;;;;1.20;1.20;;;9.70;87.40;;;;;;5069913;28;20214;-75
2022/09/22 00:03:36;;;;;;;1.47;1.47;;;9.50;87.80;;;;;;5074477;28;20571;-76
2022/09/22 00:06:05;;;;;;;1.50;1.50;;;9.50;87.80;;;;;;5077315;28;20240;-76
2022/09/22 00:08:33;;;;;;;1.23;0.87;;;9.30;88.80;;;;;;5079413;28;20180;-76
2022/09/22 00:11:07;;;;;;;1.20;1.10;;;9.30;88.90;;;;;;5075265;28;20550;-76
2022/09/22 00:13:34;;;;;;;1.10;1.10;;;9.30;88.80;;;;;;5045064;28;20639;-76
2022/09/22 00:16:01;;;;;;;1.60;1.30;;;9.30;88.30;;;;;;5069180;28;20931;-75
2022/09/22 00:18:28;;;;;;;1.63;1.53;;;9.30;88.30;;;;;;5069504;28;20183;-74
2022/09/22 00:20:54;;;;;;;1.80;1.73;;;9.30;88.20;;;;;;5072605;28;20218;-75
2022/09/22 00:23:23;;;;;;;3.70;1.17;;;9.20;88.30;;;;;;5067381;28;20186;-76
2022/09/22 00:25:49;;;;;;;2.13;1.30;;;9.30;88.00;;;;;;5067444;28;20189;-75
2022/09/22 00:28:15;;;;;;;1.20;1.20;;;9.30;87.80;;;;;;5076735;28;20886;-75
2022/09/22 00:30:41;;;;;;;1.00;1.00;;;9.30;87.60;;;;;;5066973;28;20198;-75
2022/09/22 00:33:08;;;;;;;1.10;1.10;;;9.30;87.50;;;;;;5074295;28;20175;-75
2022/09/22 00:35:37;;;;;;;1.50;1.50;;;9.30;87.60;;;;;;5066194;28;20179;-74
2022/09/22 00:38:04;;;;;;;1.00;1.00;;;9.30;87.50;;;;;;5055631;28;20183;-75
2022/09/22 00:40:34;;;;;;;1.60;1.23;;;9.30;87.20;;;;;;5074072;28;20206;-74
2022/09/22 00:43:19;;;;;;;1.17;1.17;;;9.30;87.40;;;;;;5066403;28;20201;-75
2022/09/22 00:45:52;;;;;;;1.47;1.47;;;9.30;87.30;;;;;;5049413;28;20189;-75
2022/09/22 00:48:21;;;;;;;0.90;0.90;;;9.30;87.60;;;;;;5079465;28;20189;-73
2022/09/22 00:50:49;;;;;;;0.90;0.90;;;9.30;88.00;;;;;;5067935;28;20887;-73
2022/09/22 00:53:17;;;;;;;1.23;1.23;;;9.30;87.90;;;;;;5073467;28;20202;-74
2022/09/22 00:55:48;;;;;;;2.97;1.13;;;9.30;88.00;;;;;;5074726;28;20190;-74
2022/09/22 00:58:21;;;;;;;1.10;1.10;;;9.30;87.90;;;;;;5071245;28;20183;-74
2022/09/22 01:00:47;;;;;;;0.90;0.90;;;9.30;87.50;;;;;;5070292;28;20218;-75
2022/09/22 01:03:18;;;;;;;0.90;0.90;;;9.40;87.10;;;;;;5066421;28;20183;-74
2022/09/22 01:05:46;;;;;;;1.00;1.00;;;9.40;87.00;;;;;;5072346;28;20193;-73
2022/09/22 01:08:13;;;;;;;2.77;1.30;;;9.40;87.40;;;;;;5069136;28;20183;-73
2022/09/22 01:10:39;;;;;;;0.93;0.93;;;9.30;88.20;;;;;;5066391;28;20184;-74
2022/09/22 01:13:40;;;;;;;1.20;1.20;;;9.10;88.70;;;;;;5068045;28;20721;-74
2022/09/22 01:16:15;;;;;;;1.20;1.10;;;9.20;88.50;;;;;;4966402;28;20330;-74
2022/09/22 01:18:57;;;;;;;1.10;1.10;;;9.10;88.50;;;;;;4970247;28;20594;-76
2022/09/22 01:21:29;;;;;;;1.13;1.13;;;9.00;88.90;;;;;;4971820;28;20622;-75
2022/09/22 01:24:27;;;;;;;1.00;1.00;;;8.90;89.20;;;;;;4980684;28;20200;-75
2022/09/22 01:27:27;;;;;;;1.00;1.00;;;9.00;88.70;;;;;;4923194;29;20330;-75
2022/09/22 01:30:21;;;;;;;1.20;1.10;;;9.00;88.50;;;;;;4922499;29;20187;-74
2022/09/22 01:33:17;;;;;;;1.30;1.30;;;9.00;88.20;;;;;;4926787;29;20195;-74
2022/09/22 01:35:56;;;;;;;0.83;0.83;;;8.90;88.50;;;;;;4927419;29;20274;-74
2022/09/22 01:38:34;;;;;;;3.00;1.20;;;9.00;87.90;;;;;;4925666;29;20204;-74
2022/09/22 01:41:05;;;;;;;1.10;1.10;;;9.10;88.10;;;;;;4927838;29;20756;-74
2022/09/22 01:43:55;;;;;;;1.00;1.00;;;9.10;87.30;;;;;;4928734;29;20204;-74
2022/09/22 01:46:33;;;;;;;1.13;1.03;;;9.10;86.60;;;;;;4927438;29;20241;-74
2022/09/22 01:49:05;;;;;;;1.13;1.13;;;9.10;87.00;;;;;;4927581;28;20198;-74
2022/09/22 01:51:37;;;;;;;1.27;1.27;;;9.10;87.40;;;;;;4994198;28;20193;-74
2022/09/22 01:54:11;;;;;;;1.20;1.20;;;9.10;87.40;;;;;;5010005;28;20254;-73
2022/09/22 01:56:40;;;;;;;1.00;1.00;;;9.10;87.60;;;;;;5008831;28;20207;-74
2022/09/22 01:59:08;;;;;;;0.80;0.80;;;9.00;88.00;;;;;;5005408;28;20679;-74
2022/09/22 02:01:44;;;;;;;1.13;1.03;;;8.90;88.40;;;;;;5009405;28;20227;-74
2022/09/22 02:04:19;;;;;;;1.17;1.17;;;9.00;88.10;;;;;;5049378;28;20256;-74
2022/09/22 02:07:01;;;;;;;1.20;1.20;;;9.00;87.90;;;;;;5069694;28;20189;-76
2022/09/22 02:09:29;;;;;;;1.13;1.13;;;9.00;87.60;;;;;;5073778;28;20273;-75
2022/09/22 02:11:57;;;;;;;1.17;1.17;;;9.00;88.00;;;;;;5072835;28;20179;-75
2022/09/22 02:14:24;;;;;;;1.10;1.10;;;9.00;88.10;;;;;;5074146;28;20600;-75
2022/09/22 02:16:51;;;;;;;1.70;1.43;;;8.90;88.80;;;;;;5057055;28;20181;-75
2022/09/22 02:19:42;;;;;;;1.23;1.20;;;8.90;88.50;;;;;;5076017;28;20185;-74
2022/09/22 02:22:10;;;;;;;1.20;1.20;;;8.90;88.60;;;;;;5071451;28;20688;-74
2022/09/22 02:24:44;;;;;;;1.80;1.53;;;8.80;88.90;;;;;;5077010;28;20696;-75
2022/09/22 02:27:26;;;;;;;1.10;1.10;;;8.70;89.00;;;;;;5075004;28;20251;-74
2022/09/22 02:29:59;;;;;;;1.60;1.50;;;8.70;89.30;;;;;;5067601;28;20182;-74
2022/09/22 02:32:26;;;;;;;1.30;1.30;;;8.70;90.00;;;;;;5066335;28;20183;-73
2022/09/22 02:34:53;;;;;;;1.30;1.30;;;8.70;89.70;;;;;;5073428;28;20178;-73
2022/09/22 02:37:21;;;;;;;1.23;1.23;;;8.50;90.80;;;;;;5053289;28;20189;-75
2022/09/22 02:40:24;;;;;;;1.30;1.30;;;8.60;90.60;;;;;;5077951;28;20187;-73
2022/09/22 02:42:59;;;;;;;1.33;1.33;;;8.50;90.90;;;;;;5068442;28;20186;-74
2022/09/22 02:45:50;;;;;;;1.50;1.40;;;8.40;91.80;;;;;;5053023;28;20629;-73
2022/09/22 02:48:43;;;;;;;1.43;1.37;;;8.40;91.20;;;;;;5058108;28;20801;-74
2022/09/22 02:51:09;;;;;;;1.30;1.30;;;8.50;90.90;;;;;;5071612;28;20905;-74
2022/09/22 02:53:35;;;;;;;1.87;1.30;;;8.50;91.10;;;;;;5077290;28;20727;-73
2022/09/22 02:56:03;;;;;;;1.70;1.70;;;8.50;91.10;;;;;;5072453;28;20229;-74
2022/09/22 02:58:28;;;;;;;1.57;1.50;;;8.60;91.30;;;;;;5051039;28;20638;-73
2022/09/22 03:00:54;;;;;;;1.40;1.40;;;8.60;91.10;;;;;;5066753;28;20260;-73
2022/09/22 03:03:21;;;;;;;1.57;1.47;;;8.60;91.80;;;;;;5069618;28;20186;-73
2022/09/22 03:05:46;;;;;;;1.80;1.70;;;8.50;92.60;;;;;;5063844;28;20174;-73
2022/09/22 03:08:12;;;;;;;1.60;1.60;;;8.50;92.40;;;;;;5073974;28;20182;-75
2022/09/22 03:10:38;;;;;;;2.10;1.80;;;8.60;91.90;;;;;;5061264;28;20251;-75
2022/09/22 03:13:03;;;;;;;1.47;1.40;;;8.80;91.00;;;;;;5071910;28;20184;-75
2022/09/22 03:15:29;;;;;;;1.87;1.43;;;8.80;91.40;;;;;;5071996;28;20230;-75
2022/09/22 03:17:55;;;;;;;1.67;1.67;;;8.80;91.30;;;;;;5069116;28;20179;-75
2022/09/22 03:20:20;;;;;;;1.50;1.50;;;8.80;91.70;;;;;;5067725;28;20943;-74
2022/09/22 03:22:46;;;;;;;1.93;1.93;;;8.90;91.00;;;;;;5045388;28;20261;-75
2022/09/22 03:25:12;;;;;;;2.07;1.97;;;8.90;91.10;;;;;;5073899;28;20646;-75
2022/09/22 03:27:38;;;;;;;1.87;1.77;;;8.90;91.30;;;;;;5053693;28;20194;-75
2022/09/22 03:30:06;;;;;;;1.97;1.87;;;9.00;90.80;;;;;;5071082;28;20186;-75
2022/09/22 03:32:32;;;;;;;1.83;1.77;;;9.10;90.70;;;;;;5076926;28;20210;-74
2022/09/22 03:34:57;;;;;;;2.00;1.90;;;9.00;91.30;;;;;;5072341;28;20206;-74
2022/09/22 03:37:23;;;;;;;2.00;1.90;;;9.00;91.40;;;;;;5070327;28;20194;-74
2022/09/22 03:39:49;;;;;;;2.10;2.00;;;9.00;91.10;;;;;;5070069;28;20747;-75
2022/09/22 03:42:15;;;;;;;1.70;1.70;;;9.00;91.00;;;;;;5068764;28;20261;-75
2022/09/22 03:44:40;;;;;;;1.77;1.67;;;9.00;90.90;;;;;;5072743;28;20286;-75
2022/09/22 03:47:06;;;;;;;1.80;1.80;;;9.00;90.90;;;;;;5070264;28;20683;-75
2022/09/22 03:49:32;;;;;;;2.03;1.90;;;9.00;91.10;;;;;;5075359;28;20206;-75
2022/09/22 03:51:59;;;;;;;1.53;1.53;;;9.00;91.20;;;;;;5069453;28;20210;-75
2022/09/22 03:54:25;;;;;;;1.73;1.63;;;9.00;90.60;;;;;;5075051;28;20186;-75
2022/09/22 03:56:50;;;;;;;1.83;1.83;;;9.10;90.50;;;;;;5068643;28;20193;-75
2022/09/22 03:59:16;;;;;;;1.57;1.57;;;9.10;90.50;;;;;;5068694;28;20571;-75
2022/09/22 04:01:42;;;;;;;2.00;1.90;;;9.10;90.70;;;;;;5062319;28;20212;-74
2022/09/22 04:04:08;;;;;;;2.60;1.77;;;9.10;90.80;;;;;;5069929;28;20416;-73
2022/09/22 04:06:35;;;;;;;2.00;1.97;;;9.10;91.00;;;;;;5066458;28;20711;-73
2022/09/22 04:09:01;;;;;;;2.20;2.10;;;9.10;90.50;;;;;;5055130;28;20809;-74
2022/09/22 04:11:27;;;;;;;1.60;1.60;;;9.00;91.20;;;;;;5074518;28;20182;-74
2022/09/22 04:13:53;;;;;;;1.83;1.73;;;9.10;91.20;;;;;;5071844;28;20187;-74
2022/09/22 04:16:18;;;;;;;1.80;1.80;;;9.10;90.70;;;;;;5069671;28;20290;-74
2022/09/22 04:18:44;;;;;;;2.20;2.10;;;9.10;90.70;;;;;;5070105;28;20288;-74
2022/09/22 04:21:10;;;;;;;2.00;1.90;;;9.10;90.80;;;;;;5074192;28;20229;-74
2022/09/22 04:23:36;;;;;;;2.20;2.10;;;9.20;90.50;;;;;;5070148;28;20178;-75
2022/09/22 04:26:03;;;;;;;1.97;1.87;;;9.20;90.20;;;;;;5069872;28;20190;-74
2022/09/22 04:28:29;;;;;;;2.00;1.90;;;9.20;90.50;;;;;;5072062;28;20171;-74
2022/09/22 04:30:54;;;;;;;1.60;1.60;;;9.10;90.70;;;;;;5067979;28;20187;-74
2022/09/22 04:33:20;;;;;;;1.80;1.70;;;9.10;90.80;;;;;;5075460;28;20201;-74
2022/09/22 04:35:49;;;;;;;2.03;1.93;;;9.00;91.10;;;;;;5070234;28;20174;-75
2022/09/22 04:38:15;;;;;;;1.63;1.63;;;9.10;91.00;;;;;;5072916;28;20183;-76
2022/09/22 04:40:41;;;;;;;1.77;1.77;;;9.10;90.70;;;;;;5071829;28;20230;-74
2022/09/22 04:43:07;;;;;;;1.93;1.90;;;9.20;90.80;;;;;;5071988;28;20295;-75
2022/09/22 04:45:33;;;;;;;2.17;2.07;;;9.20;90.50;;;;;;5073347;28;20178;-74
2022/09/22 04:47:58;;;;;;;1.97;1.97;;;9.20;90.70;;;;;;5070735;28;20206;-74
2022/09/22 04:50:24;;;;;;;1.83;1.77;;;9.10;90.80;;;;;;5054000;28;20272;-74
2022/09/22 04:52:55;;;;;;;2.20;2.10;;;9.10;91.00;;;;;;5068614;28;20259;-74
2022/09/22 04:55:22;;;;;;;1.97;1.87;;;9.10;90.70;;;;;;5072191;28;20178;-73
2022/09/22 04:57:50;;;;;;;2.40;2.30;;;9.20;90.90;;;;;;5070029;28;20247;-74
2022/09/22 05:00:16;;;;;;;1.87;1.77;;;9.20;90.50;;;;;;5070078;28;20230;-75
2022/09/22 05:02:42;;;;;;;1.83;1.83;;;9.20;90.80;;;;;;5068448;28;20186;-74
2022/09/22 05:05:08;;;;;;;1.50;1.50;;;9.20;91.00;;;;;;5070134;28;20190;-74
2022/09/22 05:07:34;;;;;;;2.17;2.17;;;9.20;91.00;;;;;;5073430;28;20179;-75
2022/09/22 05:09:59;;;;;;;2.37;2.27;;;9.30;90.50;;;;;;5071023;28;20559;-74
2022/09/22 05:12:26;;;;;;;2.23;2.00;;;9.40;90.20;;;;;;5077020;28;20197;-74
2022/09/22 05:14:52;;;;;;;2.10;2.10;;;9.40;90.10;;;;;;5055211;28;20228;-74
2022/09/22 05:17:18;;;;;;;3.87;2.33;;;9.50;89.90;;;;;;5074501;28;20893;-74
2022/09/22 05:19:45;;;;;;;1.97;1.87;;;9.50;89.70;;;;;;5073525;28;20265;-75
2022/09/22 05:22:11;;;;;;;2.30;2.20;;;9.60;89.60;;;;;;5069234;28;20798;-74
2022/09/22 05:24:37;;;;;;;2.00;1.90;;;9.70;89.20;;;;;;5077846;28;20182;-76
2022/09/22 05:27:04;;;;;;;2.50;2.40;;;9.80;89.10;;;;;;5069791;28;20258;-74
2022/09/22 05:29:30;;;;;;;2.20;2.10;;;9.80;88.80;;;;;;5072273;28;20186;-75
2022/09/22 05:31:55;;;;;;;6.93;1.87;;;9.90;88.80;;;;;;5074942;28;20185;-74
2022/09/22 05:34:21;;;;;;;2.20;2.10;;;9.80;88.90;;;;;;5066757;28;20873;-76
2022/09/22 05:36:47;;;;;;;2.10;2.03;;;9.80;88.90;;;;;;5071086;28;20264;-76
2022/09/22 05:39:12;;;;;;;2.40;2.30;;;9.80;89.10;;;;;;5076014;28;20186;-76
2022/09/22 05:41:38;;;;;;;2.30;2.20;;;9.80;89.20;;;;;;5076896;28;20215;-75
2022/09/22 05:44:04;;;;;;;2.63;2.50;;;9.80;89.00;;;;;;5072459;28;20890;-75
2022/09/22 05:46:30;;;;;;;2.20;2.10;;;9.80;89.10;;;;;;5070753;28;20182;-75
2022/09/22 05:48:55;;;;;;;2.07;2.00;;;9.70;89.40;;;;;;5071743;28;20183;-76
2022/09/22 05:51:21;;;;;;;2.80;2.70;;;9.80;89.40;;;;;;5073321;28;20191;-74
2022/09/22 05:53:47;;;;;;;1.97;1.87;;;9.80;89.30;;;;;;5066226;28;20747;-75
2022/09/22 05:56:12;;;;;;;2.37;2.27;;;9.80;89.50;;;;;;5052879;28;20186;-74
2022/09/22 05:58:38;;;;;;;2.20;2.10;;;9.80;89.30;;;;;;5067470;28;20191;-74
2022/09/22 06:01:04;;;;;;;2.57;2.37;;;9.90;89.20;;;;;;5055865;28;20316;-75
2022/09/22 06:03:30;;;;;;;2.40;2.30;;;10.00;88.70;;;;;;5072599;28;20186;-74
2022/09/22 06:05:55;;;;;;;1.97;1.87;;;10.20;88.40;;;;;;5075041;28;20660;-74
2022/09/22 06:08:21;;;;;;;1.47;1.37;;;10.30;88.30;;;;;;5067556;28;20190;-75
2022/09/22 06:10:50;;;;;;;1.90;1.80;;;10.40;88.00;;;;;;5072203;28;20285;-75
2022/09/22 06:13:15;;;;;;;2.28;2.17;;;10.30;87.60;;;;;;5056493;28;20182;-74
2022/09/22 06:15:46;;;;;;;2.10;2.00;;;10.30;87.40;;;;;;5072266;28;20706;-75
2022/09/22 06:18:12;;;;;;;2.20;2.10;;;10.40;87.10;;;;;;5068766;28;20174;-76
2022/09/22 06:20:38;;;;;;;2.17;2.17;;;10.50;87.00;;;;;;5073494;28;20203;-76
2022/09/22 06:23:03;;;;;;;1.98;1.88;;;10.70;86.80;;;;;;5070718;28;20183;-75
2022/09/22 06:25:30;;;;;;;2.17;2.08;;;10.60;86.50;;;;;;5067288;28;20190;-77
2022/09/22 06:28:04;;;;;;;1.77;1.67;;;10.70;86.40;;;;;;5068961;28;20210;-76
2022/09/22 06:30:30;;;;;;;1.77;1.77;;;10.80;86.20;;;;;;5069274;28;20189;-76
2022/09/22 06:32:56;;;;;;;2.03;1.92;;;10.90;86.30;;;;;;5067457;28;20236;-74
2022/09/22 06:35:23;;;;;;;2.25;2.25;;;10.90;86.00;;;;;;5065178;28;20182;-74
2022/09/22 06:37:56;;;;;;;2.20;2.10;;;10.90;85.60;;;;;;5066672;28;20737;-75
2022/09/22 06:40:26;;;;;;;5.00;2.08;;;11.00;85.60;;;;;;5064420;28;20284;-74
2022/09/22 06:43:10;;;;;;;1.67;1.63;;;11.00;85.60;;;;;;5066908;28;20209;-75
2022/09/22 06:45:37;;;;;;;2.67;2.40;;;11.10;84.80;;;;;;5051662;28;20186;-77
2022/09/22 06:48:03;;;;;;;2.33;2.22;;;11.20;85.00;;;;;;5065985;28;20175;-74
2022/09/22 06:50:31;;;;;;;2.30;2.20;;;11.30;85.00;;;;;;5067103;28;20214;-75
2022/09/22 06:53:06;;;;;;;1.85;1.77;;;11.10;84.70;;;;;;5045097;28;20194;-75
2022/09/22 06:55:32;;;;;;;2.20;2.10;;;11.20;84.40;;;;;;5049411;28;20183;-77
2022/09/22 06:57:59;;;;;;;1.77;1.75;;;11.20;84.50;;;;;;5070892;28;20197;-75
2022/09/22 07:00:32;;;;;;;2.00;1.90;;;11.30;84.70;;;;;;5065672;28;20264;-74
2022/09/22 07:03:07;;;;;;;1.55;1.55;;;11.40;84.40;;;;;;5051090;28;20189;-76
2022/09/22 07:05:34;;;;;;;2.10;2.00;;;11.30;84.00;;;;;;5051110;28;20190;-75
2022/09/22 07:08:00;;;;;;;2.08;2.00;;;11.40;84.30;;;;;;5070914;28;20179;-76
2022/09/22 07:10:26;;;;;;;1.90;1.83;;;11.50;83.80;;;;;;5069516;28;20232;-75
2022/09/22 07:12:51;;;;;;;1.75;1.75;;;11.50;83.70;;;;;;5066760;28;20178;-75
2022/09/22 07:15:17;;;;;;;1.70;1.70;;;11.50;83.80;;;;;;5071024;28;20191;-75
2022/09/22 07:17:43;;;;;;;1.83;1.77;;;11.60;83.80;;;;;;5065939;28;20730;-75
2022/09/22 07:20:08;;;;;;;1.63;1.52;;;11.70;83.70;;;;;;5070527;28;20194;-74
2022/09/22 07:22:38;;;;;;;1.58;1.58;;;11.80;83.70;;;;;;5069769;28;20182;-76
2022/09/22 07:25:06;;;;;;;2.55;2.45;;;12.00;83.50;;;;;;5057587;28;20190;-75
2022/09/22 07:27:32;;;;;;;3.22;3.03;;;12.20;83.60;;;;;;5049485;28;20682;-75
2022/09/22 07:29:58;;;;;;;2.25;2.15;;;12.40;83.00;;;;;;5064157;28;20276;-74
2022/09/22 07:32:25;;;;;;;2.45;2.35;;;12.50;82.70;;;;;;5065932;28;21093;-74
2022/09/22 07:34:51;;;;;;;2.53;2.40;;;12.60;82.40;;;;;;5047697;28;20206;-75
2022/09/22 07:37:17;;;;;;;3.67;2.25;;;12.80;82.20;;;;;;5066698;28;20260;-76
2022/09/22 07:39:44;;;;;;;2.88;2.72;;;12.90;82.20;;;;;;5070137;28;20190;-75
2022/09/22 07:42:11;;;;;;;2.90;2.80;;;13.10;82.40;;;;;;5047625;28;20214;-76
2022/09/22 07:48:34;;;;;;;2.40;2.30;;;13.40;81.50;;;;;;5061962;28;20297;-73
2022/09/22 07:50:06;;;;;;;2.00;2.00;;;13.40;79.50;;;;;;5067906;28;20182;-74
2022/09/22 07:52:32;;;;;;;1.80;1.80;;;13.40;78.50;;;;;;5064195;28;20198;-75
2022/09/22 07:54:58;;;;;;;1.88;1.88;;;13.50;78.90;;;;;;5060440;28;20199;-74
2022/09/22 07:57:24;;;;;;;1.95;1.88;;;13.50;79.00;;;;;;5061427;28;20272;-76
2022/09/22 07:59:50;;;;;;;2.25;2.15;;;13.60;78.40;;;;;;5062923;28;20260;-75
2022/09/22 08:02:15;;;;;;;1.95;1.85;;;13.70;78.50;;;;;;5061715;28;20221;-74
2022/09/22 08:04:41;;;;;;;1.77;1.77;;;13.90;78.40;;;;;;5044197;28;20214;-74
2022/09/22 08:07:07;;;;;;;1.92;1.83;;;14.10;77.50;;;;;;5060423;28;20240;-74
2022/09/22 08:09:32;;;;;;;1.45;1.45;;;14.10;75.70;;;;;;5068583;28;20179;-73
2022/09/22 08:11:58;;;;;;;1.30;1.30;;;14.30;75.50;;;;;;5062129;28;20193;-75
2022/09/22 08:14:25;;;;;;;1.17;1.17;;;14.30;74.90;;;;;;5062718;28;20223;-73
2022/09/22 08:16:52;;;;;;;1.40;1.40;;;14.30;75.00;;;;;;5045367;28;20205;-75
2022/09/22 08:19:19;;;;;;;1.45;1.45;;;14.70;75.10;;;;;;5046494;28;20295;-75
2022/09/22 08:21:46;;;;;;;1.38;1.38;;;15.30;74.70;;;;;;5043427;28;20314;-73
2022/09/22 08:24:13;;;;;;;1.70;1.60;;;16.00;75.00;;;;;;5058024;28;20190;-75
2022/09/22 08:26:42;;;;;;;1.52;1.52;;;16.80;70.20;;;;;;5058988;28;20175;-75
2022/09/22 08:29:08;;;;;;;1.85;1.35;;;17.20;69.90;;;;;;5058211;28;20206;-75
2022/09/22 08:31:34;;;;;;;1.42;1.33;;;17.70;67.90;;;;;;5058299;28;20182;-72
2022/09/22 08:34:00;;;;;;;1.00;1.00;;;18.00;67.40;;;;;;5060277;28;20264;-75
2022/09/22 08:36:27;;;;;;;1.30;1.30;;;18.20;67.50;;;;;;5065061;28;20182;-74
2022/09/22 08:38:58;;;;;;;1.50;1.40;;;18.20;65.40;;;;;;5074342;28;20592;-73
2022/09/22 08:41:27;;;;;;;1.30;1.30;;;18.00;65.90;;;;;;5070282;28;20217;-73
2022/09/22 08:44:00;;;;;;;1.10;1.10;;;17.80;65.30;;;;;;5072539;28;20182;-73
2022/09/22 08:46:35;;;;;;;1.10;1.10;;;18.00;66.00;;;;;;5042958;28;20190;-74
2022/09/22 08:52:42;;;;;;;0.90;0.90;;;18.90;63.90;;;;;;5054926;28;20192;-75
2022/09/22 08:55:20;;;;;;;4.05;1.30;;;19.40;62.50;;;;;;5043371;28;20928;-77
2022/09/22 08:58:01;;;;;;;1.05;1.05;;;19.60;62.60;;;;;;5057413;28;20187;-75
2022/09/22 09:00:37;;;;;;;1.13;1.13;;;19.50;62.80;;;;;;5057579;28;20210;-75
2022/09/22 09:03:12;;;;;;;1.13;1.13;;;19.30;63.40;;;;;;5059106;28;20272;-76
2022/09/22 09:06:00;;;;;;;2.85;0.98;;;19.40;63.00;;;;;;5040810;28;20387;-75
2022/09/22 09:08:28;;;;;;;1.25;1.25;;;19.60;63.10;;;;;;5054003;28;20183;-75
2022/09/22 09:10:55;;;;;;;1.00;1.00;;;20.10;61.40;;;;;;5056448;28;20271;-76
2022/09/22 09:13:31;;;;;;;0.75;0.75;;;20.70;59.30;;;;;;5057803;28;20187;-75
2022/09/22 09:16:05;;;;;;;0.70;0.70;;;21.30;58.10;;;;;;5056063;28;20875;-75
2022/09/22 09:18:33;;;;;;;1.00;0.98;;;21.70;57.70;;;;;;5060403;28;20265;-75
2022/09/22 09:21:04;;;;;;;0.88;0.88;;;22.10;57.40;;;;;;5065809;28;20210;-75
2022/09/22 09:23:37;;;;;;;1.00;1.00;;;22.70;55.50;;;;;;5059992;28;20813;-77
2022/09/22 09:26:04;;;;;;;0.60;0.60;;;23.00;54.50;;;;;;5064753;28;20209;-78
2022/09/22 09:28:40;;;;;;;0.32;0.32;;;23.30;53.00;;;;;;5068042;28;20182;-77
2022/09/22 09:31:35;;;;;;;0.57;0.57;;;23.70;57.40;;;;;;5067924;28;20179;-76
2022/09/22 09:34:07;;;;;;;0.80;0.80;;;24.50;53.20;;;;;;5060992;28;20183;-76
2022/09/22 09:36:40;;;;;;;0.70;0.70;;;25.20;52.40;;;;;;5059371;28;20252;-75
2022/09/22 09:39:17;;;;;;;0.70;0.70;;;25.70;52.80;;;;;;5046649;28;20749;-77
2022/09/22 09:41:48;;;;;;;0.60;0.60;;;26.10;52.40;;;;;;5059440;28;20226;-77
2022/09/22 09:44:20;;;;;;;0.50;0.50;;;26.20;53.20;;;;;;5062868;28;20187;-77
2022/09/22 09:47:01;;;;;;;0.50;0.50;;;26.20;48.00;;;;;;5062017;28;20617;-77
2022/09/22 09:49:27;;;;;;;0.40;0.40;;;26.30;48.30;;;;;;5066373;28;21191;-77
2022/09/22 09:51:58;;;;;;;0.60;0.60;;;26.50;49.90;;;;;;5063300;28;20272;-77
2022/09/22 09:54:26;;;;;;;0.50;0.50;;;26.30;49.90;;;;;;5068695;28;20232;-76
2022/09/22 09:57:04;;;;;;;0.60;0.60;;;26.40;49.10;;;;;;5046359;28;20598;-77
2022/09/22 10:02:21;;;;;;;0.40;0.40;;;27.00;48.30;;;;;;5071488;28;20264;-76
2022/09/22 10:04:58;;;;;;;0.50;0.50;;;27.30;51.60;;;;;;5076975;28;20289;-76
2022/09/22 10:07:27;;;;;;;0.40;0.40;;;27.90;53.50;;;;;;5069348;28;20178;-76
2022/09/22 10:09:54;;;;;;;0.60;0.60;;;28.60;49.20;;;;;;5069282;28;20660;-75
2022/09/22 10:12:29;;;;;;;0.50;0.50;;;29.20;45.20;;;;;;5050705;28;20182;-76
2022/09/22 10:14:57;;;;;;;0.50;0.50;;;28.70;45.20;;;;;;5068232;28;20578;-77
2022/09/22 10:17:28;;;;;;;2.20;0.50;;;27.80;47.80;;;;;;5067632;28;20179;-77
2022/09/22 10:20:14;;;;;;;1.30;0.57;;;27.10;48.10;;;;;;5065056;28;20179;-78
2022/09/22 10:22:41;;;;;;;0.60;0.60;;;26.20;49.10;;;;;;5067173;28;20197;-77
2022/09/22 10:25:21;;;;;;;3.13;0.50;;;25.90;51.10;;;;;;5047412;28;20186;-77
2022/09/22 10:28:02;;;;;;;0.60;0.60;;;25.90;48.60;;;;;;5063865;28;20190;-77
2022/09/22 10:30:31;;;;;;;0.68;0.50;;;26.30;50.80;;;;;;5059124;28;20193;-77
2022/09/22 10:33:11;;;;;;;0.52;0.47;;;26.70;50.90;;;;;;5046668;28;20191;-76
2022/09/22 10:35:39;;;;;;;0.40;0.40;;;27.40;52.90;;;;;;5060821;28;20214;-76
2022/09/22 10:38:25;;;;;;;0.40;0.40;;;28.20;51.80;;;;;;5063657;28;20202;-75
2022/09/22 10:40:59;;;;;;;0.50;0.50;;;29.20;51.00;;;;;;5040712;28;20206;-76
2022/09/22 10:43:38;;;;;;;0.30;0.30;;;30.20;49.90;;;;;;5063495;28;20800;-77
2022/09/22 10:46:12;;;;;;;0.50;0.50;;;31.00;44.80;;;;;;5041363;28;20193;-76
2022/09/22 10:48:53;;;;;;;0.50;0.50;;;31.30;44.10;;;;;;5059909;28;20200;-75
2022/09/22 10:51:36;;;;;;;0.50;0.50;;;31.50;44.00;;;;;;5060936;28;20191;-75
2022/09/22 10:54:34;;;;;;;0.50;0.50;;;31.00;41.60;;;;;;5059705;28;20202;-76
2022/09/22 10:57:09;;;;;;;0.43;0.43;;;29.90;42.10;;;;;;4977670;28;20362;-74
2022/09/22 11:00:22;;;;;;;0.52;0.52;;;29.00;47.30;;;;;;4979976;28;20211;-74
2022/09/22 11:03:35;;;;;;;1.45;0.50;;;28.00;44.60;;;;;;4926633;28;20287;-75
2022/09/22 11:12:34;;;;;;;0.40;0.40;;;28.20;50.40;;;;;;4883649;29;20232;-73
2022/09/22 11:15:12;;;;;;;0.60;0.60;;;29.00;46.50;;;;;;4883825;29;20253;-72
2022/09/22 11:17:52;;;;;;;0.50;0.50;;;29.60;45.30;;;;;;4883484;29;20252;-74
2022/09/22 11:21:03;;;;;;;0.90;0.40;;;29.50;43.90;;;;;;4880608;29;20268;-74
2022/09/22 11:23:56;;;;;;;0.40;0.40;;;29.10;43.40;;;;;;4879717;29;20320;-76
2022/09/22 11:26:44;;;;;;;0.30;0.30;;;28.50;44.30;;;;;;4882664;29;20228;-73
2022/09/22 11:29:40;;;;;;;0.20;0.20;;;27.90;46.20;;;;;;4881395;29;20208;-75
2022/09/22 11:32:43;;;;;;;0.40;0.40;;;27.90;43.20;;;;;;4881990;29;20208;-75
2022/09/22 11:35:17;;;;;;;0.17;0.17;;;27.90;44.60;;;;;;4936952;28;20238;-75
2022/09/22 11:37:51;;;;;;;0.30;0.30;;;28.20;45.80;;;;;;4938408;28;20195;-76
2022/09/22 11:40:28;;;;;;;0.30;0.30;;;28.70;43.30;;;;;;4985887;28;20193;-75
2022/09/22 11:43:16;;;;;;;0.60;0.60;;;28.90;43.00;;;;;;5049756;28;20190;-74
2022/09/22 11:46:00;;;;;;;0.50;0.50;;;28.60;45.40;;;;;;5066102;28;20218;-75
2022/09/22 11:48:51;;;;;;;0.68;0.50;;;28.40;47.50;;;;;;5068878;28;20300;-74
2022/09/22 11:51:26;;;;;;;0.50;0.50;;;28.10;45.80;;;;;;5067809;28;20219;-73
2022/09/22 11:54:13;;;;;;;0.50;0.50;;;27.40;46.80;;;;;;5065199;28;20263;-73
2022/09/22 11:56:55;;;;;;;0.65;0.65;;;26.90;49.20;;;;;;5067003;28;20281;-73
2022/09/22 11:59:36;;;;;;;0.40;0.40;;;25.90;49.50;;;;;;5059770;28;20240;-73
2022/09/22 12:02:24;;;;;;;0.65;0.60;;;25.10;51.80;;;;;;5063857;28;20214;-75
2022/09/22 12:04:54;;;;;;;0.68;0.68;;;24.50;51.90;;;;;;5045424;28;20185;-75
2022/09/22 12:07:35;;;;;;;0.45;0.45;;;24.00;51.90;;;;;;5065878;28;20653;-75
2022/09/22 12:10:06;;;;;;;1.02;0.60;;;23.80;52.50;;;;;;5068366;28;20175;-75
2022/09/22 12:12:32;;;;;;;0.60;0.60;;;23.50;52.20;;;;;;5068732;28;20191;-75
2022/09/22 12:15:07;;;;;;;0.70;0.50;;;23.30;52.80;;;;;;5062136;28;20213;-75
2022/09/22 12:17:46;;;;;;;0.43;0.43;;;23.50;52.80;;;;;;5061051;28;20208;-75
2022/09/22 12:20:19;;;;;;;0.52;0.52;;;24.00;53.60;;;;;;5063901;28;20193;-75
2022/09/22 12:23:15;;;;;;;0.60;0.60;;;24.80;51.10;;;;;;5062936;28;20193;-74
2022/09/22 12:25:55;;;;;;;1.42;0.50;;;25.70;51.60;;;;;;5063339;28;20278;-75
2022/09/22 12:28:29;;;;;;;0.40;0.40;;;26.50;48.00;;;;;;5064824;28;20194;-75
2022/09/22 12:31:05;;;;;;;0.43;0.43;;;27.20;47.40;;;;;;5067700;28;20186;-76
2022/09/22 12:33:36;;;;;;;0.30;0.30;;;28.00;47.30;;;;;;5069761;28;20602;-76
2022/09/22 12:36:04;;;;;;;0.43;0.43;;;28.70;45.00;;;;;;5050192;28;20182;-74
2022/09/22 12:38:30;;;;;;;0.40;0.40;;;28.90;44.90;;;;;;5059485;28;20271;-74
2022/09/22 12:41:01;;;;;;;0.40;0.40;;;28.60;44.90;;;;;;5042212;28;20210;-74
2022/09/22 12:43:27;;;;;;;0.57;0.30;;;28.30;45.70;;;;;;5066085;28;20187;-73
2022/09/22 12:45:55;;;;;;;0.30;0.30;;;27.80;44.70;;;;;;5067507;28;20188;-76
2022/09/22 12:48:33;;;;;;;0.30;0.30;;;27.10;44.80;;;;;;5059318;28;20195;-75
2022/09/22 12:51:23;;;;;;;0.30;0.30;;;26.60;44.70;;;;;;5061004;28;20193;-74
2022/09/22 12:53:50;;;;;;;0.38;0.38;;;25.90;45.40;;;;;;5046560;28;20277;-74
2022/09/22 12:56:38;;;;;;;0.30;0.30;;;25.40;46.50;;;;;;5047362;28;20191;-74
2022/09/22 12:59:39;;;;;;;0.40;0.40;;;25.00;48.50;;;;;;5046059;28;20186;-74
2022/09/22 13:02:10;;;;;;;0.40;0.40;;;24.80;48.40;;;;;;5066606;28;20207;-75
2022/09/22 13:04:37;;;;;;;0.40;0.40;;;24.80;49.20;;;;;;5060554;28;20219;-77
2022/09/22 13:07:23;;;;;;;0.85;0.30;;;24.90;50.00;;;;;;5055519;28;20179;-74
2022/09/22 13:10:21;;;;;;;0.65;0.30;;;25.30;50.30;;;;;;5056893;28;20182;-74
2022/09/22 13:13:04;;;;;;;0.40;0.40;;;25.50;48.60;;;;;;5056364;28;20191;-73
2022/09/22 13:15:46;;;;;;;0.30;0.30;;;25.80;49.00;;;;;;5033219;28;20229;-77
2022/09/22 13:18:26;;;;;;;0.40;0.40;;;26.10;49.10;;;;;;5057736;28;20700;-77
2022/09/22 13:20:52;;;;;;;0.52;0.45;;;26.50;49.50;;;;;;5060687;28;20218;-75
2022/09/22 13:23:18;;;;;;;0.45;0.45;;;26.80;47.40;;;;;;5058058;28;20259;-75
2022/09/22 13:25:44;;;;;;;0.40;0.40;;;26.90;47.00;;;;;;5056267;28;20187;-75
2022/09/22 13:28:17;;;;;;;1.10;0.40;;;27.00;48.40;;;;;;5059759;28;20194;-75
2022/09/22 13:30:44;;;;;;;3.63;0.60;;;27.10;47.80;;;;;;5057612;28;20324;-76